Time;durP1;ratioP1;P1;durP2;ratioP2;P2;SDS_P1;SDS_P2;PMS_P1;PMS_P2;Temp;Humidity;BMP_temperature;BMP_pressure;BME280_temperature;BME280_humidity;BME280_pressure;Samples;Min_cycle;Max_cycle;Signal;HPM_P1;HPM_P2
2024/02/22 00:01:21;;;;;;;22.13;11.03;;;;;;;;;;5144197;27;316310;-81
2024/02/22 00:03:49;;;;;;;16.30;9.73;;;;;;;;;;5133577;27;316256;-82
2024/02/22 00:06:18;;;;;;;21.37;11.00;;;;;;;;;;5144047;27;315230;-82
2024/02/22 00:08:45;;;;;;;17.47;11.03;;;;;;;;;;5125095;27;317717;-81
2024/02/22 00:11:14;;;;;;;17.00;10.20;;;;;;;;;;5145671;27;316319;-83
2024/02/22 00:13:43;;;;;;;20.47;10.83;;;;;;;;;;5134194;27;317577;-83
2024/02/22 00:16:11;;;;;;;17.53;10.57;;;;;;;;;;5142718;27;316950;-81
2024/02/22 00:18:38;;;;;;;18.40;11.00;;;;;;;;;;5130581;27;316362;-81
2024/02/22 00:21:08;;;;;;;16.80;10.17;;;;;;;;;;5143993;27;316404;-82
2024/02/22 00:23:38;;;;;;;19.87;11.17;;;;;;;;;;5132798;27;317671;-80
2024/02/22 00:26:05;;;;;;;24.73;13.23;;;;;;;;;;5143611;27;317779;-82
2024/02/22 00:28:32;;;;;;;26.70;11.90;;;;;;;;;;5134740;27;317678;-81
2024/02/22 00:30:59;;;;;;;23.53;13.57;;;;;;;;;;5136172;27;316555;-81
2024/02/22 00:33:28;;;;;;;21.97;11.90;;;;;;;;;;5143953;27;316806;-82
2024/02/22 00:35:54;;;;;;;18.70;10.97;;;;;;;;;;5129171;27;416798;-82
2024/02/22 00:38:22;;;;;;;18.63;11.87;;;;;;;;;;5144374;27;317774;-82
2024/02/22 00:40:50;;;;;;;20.50;11.30;;;;;;;;;;5122980;27;354119;-80
2024/02/22 00:50:14;;;;;;;17.87;11.43;;;;;;;;;;5131876;27;390987;-81
2024/02/22 00:52:41;;;;;;;18.17;12.07;;;;;;;;;;5125513;27;317938;-81
2024/02/22 00:55:09;;;;;;;26.50;11.70;;;;;;;;;;5145322;27;317695;-81
2024/02/22 00:57:39;;;;;;;21.77;12.70;;;;;;;;;;5132703;27;317656;-81
2024/02/22 01:00:08;;;;;;;18.80;12.40;;;;;;;;;;5125628;27;317788;-81
2024/02/22 01:02:35;;;;;;;21.07;11.87;;;;;;;;;;5136123;27;317278;-81
2024/02/22 01:05:02;;;;;;;22.10;13.50;;;;;;;;;;5144429;27;317807;-82
2024/02/22 01:07:31;;;;;;;20.80;12.67;;;;;;;;;;5137521;27;318962;-81
2024/02/22 01:13:22;;;;;;;20.87;10.00;;;;;;;;;;5106460;27;388969;-82
2024/02/22 01:15:50;;;;;;;16.27;10.57;;;;;;;;;;5135516;27;316411;-82
2024/02/22 01:18:19;;;;;;;14.27;9.87;;;;;;;;;;5148745;27;316328;-81
2024/02/22 01:20:47;;;;;;;17.10;10.47;;;;;;;;;;5130406;27;317113;-81
2024/02/22 01:23:18;;;;;;;14.90;9.77;;;;;;;;;;5149395;27;317134;-81
2024/02/22 01:25:45;;;;;;;16.63;9.87;;;;;;;;;;5135700;27;317284;-80
2024/02/22 01:28:12;;;;;;;17.30;10.40;;;;;;;;;;5150042;27;316488;-81
2024/02/22 01:30:39;;;;;;;13.67;9.60;;;;;;;;;;5126155;27;316475;-81
2024/02/22 01:33:08;;;;;;;21.13;11.80;;;;;;;;;;5149641;27;316903;-81
2024/02/22 01:35:35;;;;;;;16.20;11.00;;;;;;;;;;5133847;27;355671;-82
2024/02/22 01:38:04;;;;;;;25.77;14.23;;;;;;;;;;5149321;27;318419;-81
2024/02/22 01:40:34;;;;;;;50.50;22.63;;;;;;;;;;5136415;27;318636;-81
2024/02/22 01:43:02;;;;;;;26.90;14.80;;;;;;;;;;5143412;27;317997;-81
2024/02/22 01:45:29;;;;;;;19.67;12.73;;;;;;;;;;5136449;27;318156;-81
2024/02/22 01:47:59;;;;;;;26.40;12.93;;;;;;;;;;5146211;27;318240;-81
2024/02/22 01:50:27;;;;;;;33.27;15.70;;;;;;;;;;5149119;27;318319;-81
2024/02/22 01:52:54;;;;;;;31.27;15.90;;;;;;;;;;5124976;27;417479;-82
2024/02/22 01:55:25;;;;;;;21.03;12.20;;;;;;;;;;5146381;27;318163;-82
2024/02/22 01:57:55;;;;;;;21.10;11.33;;;;;;;;;;5137389;27;318024;-81
2024/02/22 02:00:23;;;;;;;20.37;12.10;;;;;;;;;;5145922;27;317937;-81
2024/02/22 02:02:50;;;;;;;21.60;13.73;;;;;;;;;;5127072;27;318072;-81
2024/02/22 02:05:17;;;;;;;23.57;13.83;;;;;;;;;;5147643;27;318159;-83
2024/02/22 02:07:48;;;;;;;23.67;14.00;;;;;;;;;;5137527;27;317393;-82
2024/02/22 02:10:15;;;;;;;22.07;12.60;;;;;;;;;;5150469;27;317706;-82
2024/02/22 02:12:41;;;;;;;20.20;11.50;;;;;;;;;;5130072;27;318956;-82
2024/02/22 02:15:11;;;;;;;16.97;10.60;;;;;;;;;;5144557;27;316469;-81
2024/02/22 02:17:41;;;;;;;19.17;11.27;;;;;;;;;;5136015;27;316431;-82
2024/02/22 02:20:11;;;;;;;15.30;10.03;;;;;;;;;;5147801;27;316549;-82
2024/02/22 02:22:59;;;;;;;20.07;10.63;;;;;;;;;;5129572;27;317651;-80
2024/02/22 02:25:30;;;;;;;19.93;10.70;;;;;;;;;;5149586;27;317468;-82
2024/02/22 02:27:57;;;;;;;24.53;11.73;;;;;;;;;;5134703;27;417455;-82
2024/02/22 02:30:25;;;;;;;23.27;10.50;;;;;;;;;;5147969;27;318041;-81
2024/02/22 02:32:53;;;;;;;23.43;12.03;;;;;;;;;;5128949;27;316369;-82
2024/02/22 02:35:20;;;;;;;21.63;11.07;;;;;;;;;;5148720;27;317601;-81
2024/02/22 02:37:49;;;;;;;17.53;10.07;;;;;;;;;;5136538;27;316630;-81
2024/02/22 02:40:17;;;;;;;17.17;9.90;;;;;;;;;;5150266;27;316838;-81
2024/02/22 02:42:48;;;;;;;18.17;8.87;;;;;;;;;;5130615;27;316961;-81
2024/02/22 02:45:15;;;;;;;12.30;7.20;;;;;;;;;;5153630;27;317119;-82
2024/02/22 02:47:43;;;;;;;16.87;7.90;;;;;;;;;;5136901;27;316862;-81
2024/02/22 02:50:11;;;;;;;8.90;6.33;;;;;;;;;;5147355;27;316792;-82
2024/02/22 02:52:38;;;;;;;13.23;6.33;;;;;;;;;;5139937;27;315699;-82
2024/02/22 02:55:05;;;;;;;8.50;5.70;;;;;;;;;;5163549;27;314605;-81
2024/02/22 02:57:35;;;;;;;10.13;5.10;;;;;;;;;;5154493;27;314306;-81
2024/02/22 03:00:08;;;;;;;8.13;5.57;;;;;;;;;;5163195;27;315282;-81
2024/02/22 03:02:35;;;;;;;10.73;6.20;;;;;;;;;;5135452;27;316358;-82
2024/02/22 03:05:03;;;;;;;17.23;8.90;;;;;;;;;;5139785;27;316458;-83
2024/02/22 03:07:30;;;;;;;17.93;8.33;;;;;;;;;;5135405;27;316739;-82
2024/02/22 03:09:58;;;;;;;9.90;6.87;;;;;;;;;;5146515;27;316636;-82
2024/02/22 03:12:25;;;;;;;12.13;6.90;;;;;;;;;;5145795;27;314819;-82
2024/02/22 03:14:53;;;;;;;10.97;7.20;;;;;;;;;;5125875;27;315335;-81
2024/02/22 03:17:24;;;;;;;12.53;7.90;;;;;;;;;;5147077;27;315563;-82
2024/02/22 03:19:52;;;;;;;12.90;8.40;;;;;;;;;;5135007;27;316441;-81
2024/02/22 03:22:20;;;;;;;13.77;8.43;;;;;;;;;;5143588;27;315553;-82
2024/02/22 03:24:47;;;;;;;15.80;6.60;;;;;;;;;;5126579;27;316555;-83
2024/02/22 03:27:18;;;;;;;7.00;5.90;;;;;;;;;;5143690;27;315447;-82
2024/02/22 03:29:46;;;;;;;7.57;6.00;;;;;;;;;;5133734;27;315601;-81
2024/02/22 03:32:15;;;;;;;9.50;6.00;;;;;;;;;;5142790;27;339986;-80
2024/02/22 03:34:44;;;;;;;9.67;6.57;;;;;;;;;;5121933;27;315586;-82
2024/02/22 03:37:13;;;;;;;13.23;7.07;;;;;;;;;;5147305;27;314742;-82
2024/02/22 03:39:44;;;;;;;13.07;9.00;;;;;;;;;;5134071;27;316628;-82
2024/02/22 03:42:12;;;;;;;12.17;8.20;;;;;;;;;;5146113;27;316353;-81
2024/02/22 03:44:40;;;;;;;12.40;8.83;;;;;;;;;;5130971;27;316707;-82
2024/02/22 03:47:07;;;;;;;13.47;8.80;;;;;;;;;;5148137;27;316663;-81
2024/02/22 03:49:34;;;;;;;12.70;8.93;;;;;;;;;;5137476;27;316023;-83
2024/02/22 03:52:15;;;;;;;11.60;9.33;;;;;;;;;;5146891;27;316784;-81
2024/02/22 03:54:42;;;;;;;16.53;10.57;;;;;;;;;;5128697;27;315858;-81
2024/02/22 03:57:09;;;;;;;15.27;11.27;;;;;;;;;;5146095;27;316358;-84
2024/02/22 03:59:35;;;;;;;16.73;12.37;;;;;;;;;;5135663;27;316465;-83
2024/02/22 04:02:04;;;;;;;32.80;16.90;;;;;;;;;;5147650;27;316300;-83
2024/02/22 04:04:30;;;;;;;36.50;19.67;;;;;;;;;;5135296;27;316492;-81
2024/02/22 04:06:58;;;;;;;27.67;16.57;;;;;;;;;;5138936;27;323631;-81
2024/02/22 04:09:28;;;;;;;30.27;16.53;;;;;;;;;;5149195;27;316616;-82
2024/02/22 04:11:55;;;;;;;28.77;16.97;;;;;;;;;;5133059;27;417874;-80
2024/02/22 04:14:22;;;;;;;26.03;13.70;;;;;;;;;;5147028;27;316327;-82
2024/02/22 04:16:51;;;;;;;26.87;14.63;;;;;;;;;;5127721;27;329648;-82
2024/02/22 04:19:17;;;;;;;32.00;16.33;;;;;;;;;;5146298;27;343162;-81
2024/02/22 04:21:45;;;;;;;22.33;14.53;;;;;;;;;;5133677;27;316776;-81
2024/02/22 04:24:12;;;;;;;16.37;11.13;;;;;;;;;;5145435;27;316594;-82
2024/02/22 04:26:51;;;;;;;15.60;11.33;;;;;;;;;;5129276;27;317825;-82
2024/02/22 04:29:18;;;;;;;19.27;11.50;;;;;;;;;;5146603;27;316400;-82
2024/02/22 04:31:48;;;;;;;17.10;11.07;;;;;;;;;;5135605;27;316544;-81
2024/02/22 04:34:18;;;;;;;17.43;11.60;;;;;;;;;;5147437;27;316590;-81
2024/02/22 04:36:48;;;;;;;22.27;12.77;;;;;;;;;;5129065;27;318313;-81
2024/02/22 04:39:16;;;;;;;19.70;12.10;;;;;;;;;;5147268;27;317878;-81
2024/02/22 04:41:44;;;;;;;29.20;18.10;;;;;;;;;;5133870;27;316214;-82
2024/02/22 04:44:14;;;;;;;24.53;13.93;;;;;;;;;;5147801;27;316498;-81
2024/02/22 04:46:40;;;;;;;21.97;14.90;;;;;;;;;;5129109;27;317594;-81
2024/02/22 04:49:09;;;;;;;17.20;12.30;;;;;;;;;;5144455;27;345585;-81
2024/02/22 04:51:38;;;;;;;20.67;12.63;;;;;;;;;;5138046;27;317805;-82
2024/02/22 04:54:05;;;;;;;18.70;11.77;;;;;;;;;;5147645;27;316770;-81
2024/02/22 04:56:32;;;;;;;16.70;11.50;;;;;;;;;;5132884;27;389971;-81
2024/02/22 04:59:00;;;;;;;11.30;8.80;;;;;;;;;;5136707;27;316503;-81
2024/02/22 05:01:28;;;;;;;15.90;10.57;;;;;;;;;;5148484;27;315317;-81
2024/02/22 05:03:59;;;;;;;13.40;9.90;;;;;;;;;;5133565;27;417376;-82
2024/02/22 05:06:28;;;;;;;12.33;8.17;;;;;;;;;;5148324;27;315505;-81
2024/02/22 05:08:55;;;;;;;12.87;10.23;;;;;;;;;;5126677;27;417956;-81
2024/02/22 05:11:23;;;;;;;17.43;11.20;;;;;;;;;;5148808;27;316696;-81
2024/02/22 05:13:53;;;;;;;15.90;12.77;;;;;;;;;;5135891;27;317550;-83
2024/02/22 05:16:20;;;;;;;16.17;11.47;;;;;;;;;;5146721;27;316703;-81
2024/02/22 05:18:51;;;;;;;14.20;9.80;;;;;;;;;;5124466;27;317597;-82
2024/02/22 05:21:19;;;;;;;13.27;8.93;;;;;;;;;;5144535;27;316754;-80
2024/02/22 05:23:48;;;;;;;11.50;8.57;;;;;;;;;;5132579;27;341625;-80
2024/02/22 05:26:14;;;;;;;15.57;10.97;;;;;;;;;;5147298;27;315349;-82
2024/02/22 05:28:41;;;;;;;14.40;10.13;;;;;;;;;;5129505;27;316429;-80
2024/02/22 05:31:22;;;;;;;13.40;9.33;;;;;;;;;;5148908;27;317586;-82
2024/02/22 05:33:52;;;;;;;12.13;8.63;;;;;;;;;;5135822;27;316603;-81
2024/02/22 05:36:21;;;;;;;13.00;8.93;;;;;;;;;;5144925;27;316244;-81
2024/02/22 05:38:49;;;;;;;20.60;10.40;;;;;;;;;;5128806;27;315269;-81
2024/02/22 05:41:17;;;;;;;11.77;9.33;;;;;;;;;;5146740;27;316773;-81
2024/02/22 05:43:45;;;;;;;12.43;10.33;;;;;;;;;;5136702;27;316365;-83
2024/02/22 05:46:13;;;;;;;17.90;11.27;;;;;;;;;;5148841;27;317881;-83
2024/02/22 05:48:40;;;;;;;15.13;11.73;;;;;;;;;;5130502;27;316527;-82
2024/02/22 05:51:10;;;;;;;13.43;11.13;;;;;;;;;;5147457;27;318090;-82
2024/02/22 05:53:38;;;;;;;17.57;11.87;;;;;;;;;;5135661;27;318230;-82
2024/02/22 05:56:05;;;;;;;21.53;15.50;;;;;;;;;;5146575;27;317700;-81
2024/02/22 05:58:32;;;;;;;20.03;14.87;;;;;;;;;;5136554;27;316438;-83
2024/02/22 06:00:59;;;;;;;16.10;10.40;;;;;;;;;;5141219;27;317639;-80
2024/02/22 06:03:27;;;;;;;15.17;10.53;;;;;;;;;;5145365;27;317608;-81
2024/02/22 06:05:55;;;;;;;18.20;10.90;;;;;;;;;;5132231;27;417566;-81
2024/02/22 06:08:24;;;;;;;14.87;11.47;;;;;;;;;;5147780;27;317800;-81
2024/02/22 06:10:53;;;;;;;16.20;12.27;;;;;;;;;;5127911;27;317715;-81
2024/02/22 06:13:20;;;;;;;14.17;10.33;;;;;;;;;;5149327;27;316659;-81
2024/02/22 06:15:47;;;;;;;16.50;9.57;;;;;;;;;;5136437;27;318173;-82
2024/02/22 06:18:14;;;;;;;10.40;8.40;;;;;;;;;;5148802;27;315497;-81
2024/02/22 06:20:42;;;;;;;10.90;8.27;;;;;;;;;;5129664;27;315301;-80
2024/02/22 06:23:10;;;;;;;16.57;11.70;;;;;;;;;;5146300;27;316562;-83
2024/02/22 06:25:40;;;;;;;19.33;12.73;;;;;;;;;;5136064;27;316281;-83
2024/02/22 06:28:09;;;;;;;18.77;12.00;;;;;;;;;;5147140;27;317963;-82
2024/02/22 06:30:38;;;;;;;18.43;12.20;;;;;;;;;;5134107;27;317366;-83
2024/02/22 06:33:06;;;;;;;68.67;37.20;;;;;;;;;;5147649;27;316397;-82
2024/02/22 06:35:33;;;;;;;27.17;16.30;;;;;;;;;;5115881;27;317745;-83
2024/02/22 06:37:59;;;;;;;38.43;24.10;;;;;;;;;;5145889;27;323594;-82
2024/02/22 06:40:26;;;;;;;22.47;16.07;;;;;;;;;;5147261;27;318136;-82
2024/02/22 06:42:56;;;;;;;20.60;14.87;;;;;;;;;;5127773;27;318393;-81
2024/02/22 06:45:24;;;;;;;23.23;16.07;;;;;;;;;;5143731;27;318223;-81
2024/02/22 06:47:51;;;;;;;22.07;15.37;;;;;;;;;;5137471;27;318293;-83
2024/02/22 06:50:19;;;;;;;19.53;15.43;;;;;;;;;;5145615;27;318040;-82
2024/02/22 06:52:51;;;;;;;21.13;14.77;;;;;;;;;;5127684;27;318736;-83
2024/02/22 06:55:18;;;;;;;26.30;16.93;;;;;;;;;;5148683;27;318331;-83
2024/02/22 06:57:45;;;;;;;26.67;17.53;;;;;;;;;;5136873;27;319087;-82
2024/02/22 07:00:15;;;;;;;25.43;18.43;;;;;;;;;;5145411;27;317597;-82
2024/02/22 07:02:43;;;;;;;25.53;19.53;;;;;;;;;;5130039;27;318297;-83
2024/02/22 07:05:10;;;;;;;26.20;20.00;;;;;;;;;;5145738;27;317452;-82
2024/02/22 07:07:39;;;;;;;25.33;18.17;;;;;;;;;;5134565;27;318283;-83
2024/02/22 07:10:07;;;;;;;34.93;21.63;;;;;;;;;;5146429;27;318213;-82
2024/02/22 07:12:35;;;;;;;28.17;20.30;;;;;;;;;;5137446;27;318519;-81
2024/02/22 07:15:03;;;;;;;34.37;23.63;;;;;;;;;;5144380;27;318273;-81
2024/02/22 07:17:31;;;;;;;38.83;26.93;;;;;;;;;;5135898;27;318605;-80
2024/02/22 07:19:58;;;;;;;35.23;22.90;;;;;;;;;;5148933;27;318316;-83
2024/02/22 07:22:28;;;;;;;40.27;26.00;;;;;;;;;;5148870;27;318454;-83
2024/02/22 07:24:58;;;;;;;35.20;26.20;;;;;;;;;;5129720;27;419189;-83
2024/02/22 07:27:26;;;;;;;44.83;28.63;;;;;;;;;;5148547;27;318160;-83
2024/02/22 07:29:53;;;;;;;43.27;28.40;;;;;;;;;;5133323;27;406855;-81
2024/02/22 07:32:22;;;;;;;42.53;27.07;;;;;;;;;;5148714;27;318075;-82
2024/02/22 07:34:50;;;;;;;43.23;26.47;;;;;;;;;;5127839;27;318372;-81
2024/02/22 07:37:19;;;;;;;38.57;26.83;;;;;;;;;;5148253;27;317343;-81
2024/02/22 07:39:48;;;;;;;40.90;26.27;;;;;;;;;;5135612;27;317889;-82
2024/02/22 07:42:19;;;;;;;38.20;24.10;;;;;;;;;;5148369;27;317619;-81
2024/02/22 07:44:47;;;;;;;38.70;24.67;;;;;;;;;;5127335;27;317666;-82
2024/02/22 07:47:14;;;;;;;41.47;24.73;;;;;;;;;;5149188;27;316659;-81
2024/02/22 07:49:42;;;;;;;33.43;22.67;;;;;;;;;;5137939;27;316831;-81
2024/02/22 07:52:11;;;;;;;24.77;18.03;;;;;;;;;;5149416;27;316702;-81
2024/02/22 07:54:40;;;;;;;29.50;20.50;;;;;;;;;;5135397;27;317622;-81
2024/02/22 07:57:07;;;;;;;21.67;14.77;;;;;;;;;;5152801;27;316362;-81
2024/02/22 07:59:34;;;;;;;26.50;16.37;;;;;;;;;;5145636;27;317738;-81
2024/02/22 08:02:00;;;;;;;25.43;16.83;;;;;;;;;;5157919;27;316147;-81
2024/02/22 08:04:28;;;;;;;29.87;17.90;;;;;;;;;;5155920;27;316095;-83
2024/02/22 08:06:59;;;;;;;29.40;20.13;;;;;;;;;;5136506;27;417661;-80
2024/02/22 08:09:28;;;;;;;35.70;24.17;;;;;;;;;;5160775;27;316188;-82
2024/02/22 08:11:55;;;;;;;35.13;24.20;;;;;;;;;;5144132;27;417056;-80
2024/02/22 08:14:25;;;;;;;34.50;22.40;;;;;;;;;;5160909;27;317807;-81
2024/02/22 08:16:53;;;;;;;36.13;22.23;;;;;;;;;;5142964;27;319102;-81
2024/02/22 08:19:20;;;;;;;33.10;23.83;;;;;;;;;;5165231;27;315370;-81
2024/02/22 08:21:51;;;;;;;30.60;22.93;;;;;;;;;;5154330;27;315305;-81
2024/02/22 08:24:20;;;;;;;37.87;23.30;;;;;;;;;;5165007;27;316698;-81
2024/02/22 08:26:50;;;;;;;28.27;20.63;;;;;;;;;;5148449;27;316418;-81
2024/02/22 08:29:16;;;;;;;28.20;20.43;;;;;;;;;;5164919;27;316387;-83
2024/02/22 08:31:47;;;;;;;27.73;18.67;;;;;;;;;;5153705;27;316382;-82
2024/02/22 08:34:14;;;;;;;37.80;23.23;;;;;;;;;;5164012;27;316533;-80
2024/02/22 08:36:43;;;;;;;31.50;23.47;;;;;;;;;;5143717;27;316547;-79
2024/02/22 08:39:10;;;;;;;33.73;22.90;;;;;;;;;;5143700;27;316446;-81
2024/02/22 08:41:37;;;;;;;34.63;23.43;;;;;;;;;;5124114;27;316409;-81
2024/02/22 08:44:11;;;;;;;36.50;24.73;;;;;;;;;;5146635;27;317974;-80
2024/02/22 08:46:38;;;;;;;35.20;23.50;;;;;;;;;;5130028;27;317092;-81
2024/02/22 08:49:10;;;;;;;34.03;24.47;;;;;;;;;;5142525;27;316601;-82
2024/02/22 08:51:37;;;;;;;35.37;25.70;;;;;;;;;;5134151;27;316502;-82
2024/02/22 08:54:04;;;;;;;35.03;23.90;;;;;;;;;;5145202;27;317339;-81
2024/02/22 08:56:30;;;;;;;36.20;24.40;;;;;;;;;;5132168;27;357595;-80
2024/02/22 08:58:59;;;;;;;32.20;23.17;;;;;;;;;;5139840;27;318339;-81
2024/02/22 09:01:32;;;;;;;38.33;26.73;;;;;;;;;;5146654;27;316945;-81
2024/02/22 09:04:01;;;;;;;36.20;26.17;;;;;;;;;;5132881;27;417564;-82
2024/02/22 09:06:29;;;;;;;29.87;23.93;;;;;;;;;;5147458;27;318200;-81
2024/02/22 09:09:00;;;;;;;43.87;27.27;;;;;;;;;;5125364;27;418867;-82
2024/02/22 09:11:27;;;;;;;46.67;26.07;;;;;;;;;;5147618;27;318064;-82
2024/02/22 09:13:55;;;;;;;38.13;26.43;;;;;;;;;;5121601;27;419074;-83
2024/02/22 09:16:22;;;;;;;30.27;23.00;;;;;;;;;;5149402;27;318268;-83
2024/02/22 09:18:50;;;;;;;34.40;25.53;;;;;;;;;;5145834;27;335579;-82
2024/02/22 09:21:17;;;;;;;36.37;23.20;;;;;;;;;;5147949;27;316582;-81
2024/02/22 09:23:45;;;;;;;39.43;27.03;;;;;;;;;;5148513;27;352768;-81
2024/02/22 09:26:12;;;;;;;43.87;28.70;;;;;;;;;;5163759;27;318630;-81
2024/02/22 09:28:39;;;;;;;42.40;29.90;;;;;;;;;;5147011;27;317545;-80
2024/02/22 09:31:08;;;;;;;46.37;31.17;;;;;;;;;;5165972;27;316264;-80
2024/02/22 09:33:35;;;;;;;46.47;31.80;;;;;;;;;;5147328;27;318844;-82
2024/02/22 09:36:04;;;;;;;46.97;32.57;;;;;;;;;;5147752;27;317623;-80
2024/02/22 09:38:34;;;;;;;43.83;29.77;;;;;;;;;;5136364;27;319158;-82
2024/02/22 09:41:03;;;;;;;40.87;28.77;;;;;;;;;;5139755;27;318886;-83
2024/02/22 09:43:30;;;;;;;43.77;28.87;;;;;;;;;;5134538;27;318679;-82
2024/02/22 09:45:56;;;;;;;43.80;30.00;;;;;;;;;;5145948;27;318951;-81
2024/02/22 09:48:24;;;;;;;30.00;22.43;;;;;;;;;;5147490;27;318974;-80
2024/02/22 09:50:52;;;;;;;32.47;21.97;;;;;;;;;;5126703;27;318741;-80
2024/02/22 09:53:23;;;;;;;29.73;23.57;;;;;;;;;;5144906;27;318558;-81
2024/02/22 09:55:51;;;;;;;37.37;21.40;;;;;;;;;;5132383;27;317574;-81
2024/02/22 09:58:21;;;;;;;30.23;22.23;;;;;;;;;;5144484;27;318056;-81
2024/02/22 10:00:50;;;;;;;31.27;19.87;;;;;;;;;;5125129;27;317613;-81
2024/02/22 10:03:17;;;;;;;27.40;19.50;;;;;;;;;;5146228;27;317737;-83
2024/02/22 10:05:44;;;;;;;63.03;39.10;;;;;;;;;;5137465;27;318793;-81
2024/02/22 10:08:13;;;;;;;40.00;22.70;;;;;;;;;;5146789;27;317909;-81
2024/02/22 10:10:45;;;;;;;24.27;17.80;;;;;;;;;;5124623;27;319733;-81
2024/02/22 10:13:19;;;;;;;30.50;20.20;;;;;;;;;;5144154;27;318938;-82
2024/02/22 10:15:48;;;;;;;24.57;16.37;;;;;;;;;;5135350;27;318771;-81
2024/02/22 10:18:28;;;;;;;20.63;16.43;;;;;;;;;;5145389;27;318922;-82
2024/02/22 10:20:55;;;;;;;23.93;16.10;;;;;;;;;;5123766;27;420161;-81
2024/02/22 10:23:24;;;;;;;20.93;16.40;;;;;;;;;;5145816;27;317653;-81
2024/02/22 10:26:02;;;;;;;21.73;15.33;;;;;;;;;;5133734;27;318604;-81
2024/02/22 10:28:30;;;;;;;14.03;11.10;;;;;;;;;;5135080;27;318231;-84
2024/02/22 10:31:03;;;;;;;14.83;9.63;;;;;;;;;;5140744;27;317591;-81
2024/02/22 10:33:30;;;;;;;22.07;12.00;;;;;;;;;;5132712;27;317213;-81
2024/02/22 10:35:59;;;;;;;14.73;11.27;;;;;;;;;;5141541;27;317562;-81
2024/02/22 10:38:31;;;;;;;13.73;9.77;;;;;;;;;;5144513;27;337948;-82
2024/02/22 10:41:01;;;;;;;15.77;10.77;;;;;;;;;;5123799;27;417596;-83
2024/02/22 10:43:28;;;;;;;11.97;9.30;;;;;;;;;;5146098;27;317824;-83
2024/02/22 10:46:03;;;;;;;13.80;10.83;;;;;;;;;;5129804;27;419425;-82
2024/02/22 10:48:33;;;;;;;12.63;9.63;;;;;;;;;;5137109;27;317858;-82
2024/02/22 10:51:04;;;;;;;18.47;13.50;;;;;;;;;;5139277;27;316812;-84
2024/02/22 10:53:38;;;;;;;14.37;11.37;;;;;;;;;;5134143;27;318804;-83
2024/02/22 10:56:09;;;;;;;16.83;11.37;;;;;;;;;;5144846;27;318544;-84
2024/02/22 10:58:42;;;;;;;14.80;11.70;;;;;;;;;;5133983;27;317766;-83
2024/02/22 11:01:13;;;;;;;24.90;20.37;;;;;;;;;;5146302;27;318936;-84
2024/02/22 11:03:40;;;;;;;14.43;10.63;;;;;;;;;;5133180;27;319009;-83
2024/02/22 11:06:10;;;;;;;13.77;10.90;;;;;;;;;;5146344;27;318805;-81
2024/02/22 11:08:39;;;;;;;12.07;10.23;;;;;;;;;;5132041;27;317780;-81
2024/02/22 11:11:10;;;;;;;15.57;11.23;;;;;;;;;;5144776;27;319374;-83
2024/02/22 11:13:37;;;;;;;13.70;9.83;;;;;;;;;;5134147;27;317570;-83
2024/02/22 11:16:15;;;;;;;12.07;10.03;;;;;;;;;;5146413;27;316608;-82
2024/02/22 11:18:46;;;;;;;16.57;11.20;;;;;;;;;;5126409;27;319059;-82
2024/02/22 11:21:13;;;;;;;12.33;9.57;;;;;;;;;;5147566;27;318907;-81
2024/02/22 11:23:41;;;;;;;12.90;8.67;;;;;;;;;;5135786;27;317692;-83
2024/02/22 11:26:09;;;;;;;12.60;8.50;;;;;;;;;;5147733;27;317590;-83
2024/02/22 11:28:38;;;;;;;19.63;13.60;;;;;;;;;;5128250;27;317362;-83
2024/02/22 11:31:12;;;;;;;12.70;11.30;;;;;;;;;;5145622;27;319027;-83
2024/02/22 11:33:41;;;;;;;32.40;12.00;;;;;;;;;;5134586;27;318770;-82
2024/02/22 11:36:09;;;;;;;13.03;11.60;;;;;;;;;;5145136;27;319316;-81
2024/02/22 11:38:37;;;;;;;11.17;8.97;;;;;;;;;;5135726;27;318413;-83
2024/02/22 11:41:04;;;;;;;13.60;9.70;;;;;;;;;;5148398;27;316961;-83
2024/02/22 11:43:33;;;;;;;17.00;11.73;;;;;;;;;;5136619;27;316897;-81
2024/02/22 11:46:02;;;;;;;14.00;9.57;;;;;;;;;;5148408;27;319038;-83
2024/02/22 11:48:29;;;;;;;11.93;9.97;;;;;;;;;;5148237;27;316555;-81
2024/02/22 11:50:58;;;;;;;17.00;10.80;;;;;;;;;;5123259;27;417611;-83
2024/02/22 11:53:25;;;;;;;17.77;11.20;;;;;;;;;;5120743;27;318833;-83
2024/02/22 11:55:52;;;;;;;15.17;11.57;;;;;;;;;;5124936;27;317429;-83
2024/02/22 11:58:21;;;;;;;23.00;11.47;;;;;;;;;;5147506;27;319398;-83
2024/02/22 12:00:51;;;;;;;16.60;13.00;;;;;;;;;;5129557;27;318774;-83
2024/02/22 12:03:18;;;;;;;17.20;9.90;;;;;;;;;;5149561;27;317696;-82
2024/02/22 12:05:45;;;;;;;16.00;10.23;;;;;;;;;;5134518;27;317948;-82
2024/02/22 12:08:15;;;;;;;10.77;9.40;;;;;;;;;;5146909;27;318680;-82
2024/02/22 12:10:43;;;;;;;15.05;10.75;;;;;;;;;;5130518;27;318076;-81
2024/02/22 12:13:11;;;;;;;12.50;8.73;;;;;;;;;;5151082;27;317843;-82
2024/02/22 12:15:41;;;;;;;14.40;9.23;;;;;;;;;;5113229;27;317872;-81
2024/02/22 12:18:14;;;;;;;26.58;11.88;;;;;;;;;;5129339;27;318124;-82
2024/02/22 12:20:46;;;;;;;14.43;10.50;;;;;;;;;;5118378;27;418626;-81
2024/02/22 12:23:12;;;;;;;18.80;9.53;;;;;;;;;;5115197;27;318660;-82
2024/02/22 12:25:50;;;;;;;11.55;8.40;;;;;;;;;;5145416;27;340849;-82
2024/02/22 12:28:17;;;;;;;13.30;9.20;;;;;;;;;;5136197;27;318579;-83
2024/02/22 12:30:45;;;;;;;12.90;8.02;;;;;;;;;;5144806;27;318630;-82
2024/02/22 12:33:23;;;;;;;11.80;8.45;;;;;;;;;;5115750;27;336311;-81
2024/02/22 12:35:49;;;;;;;16.30;8.57;;;;;;;;;;5131474;27;317434;-81
2024/02/22 12:38:20;;;;;;;11.30;8.15;;;;;;;;;;5122858;27;317615;-82
2024/02/22 12:40:50;;;;;;;14.93;8.60;;;;;;;;;;5144486;27;317337;-81
2024/02/22 12:43:21;;;;;;;9.73;7.97;;;;;;;;;;5124748;27;352472;-80
2024/02/22 12:45:49;;;;;;;19.02;7.72;;;;;;;;;;5127180;27;315422;-82
2024/02/22 12:48:16;;;;;;;10.63;7.07;;;;;;;;;;5105384;27;318687;-81
2024/02/22 12:50:45;;;;;;;10.93;7.70;;;;;;;;;;5138983;27;318071;-81
2024/02/22 12:53:13;;;;;;;26.55;18.12;;;;;;;;;;5125498;27;317607;-81
2024/02/22 12:55:41;;;;;;;11.38;7.70;;;;;;;;;;5128473;27;317717;-82
2024/02/22 12:58:11;;;;;;;8.80;6.50;;;;;;;;;;5145749;27;318190;-83
2024/02/22 13:00:41;;;;;;;10.30;7.07;;;;;;;;;;5125001;27;417908;-81
2024/02/22 13:03:11;;;;;;;8.00;6.30;;;;;;;;;;5125438;27;316580;-81
2024/02/22 13:05:41;;;;;;;10.57;5.93;;;;;;;;;;5122173;27;416903;-82
2024/02/22 13:08:12;;;;;;;7.60;6.77;;;;;;;;;;5147601;27;318073;-81
2024/02/22 13:10:41;;;;;;;6.72;5.50;;;;;;;;;;5122588;27;416272;-83
2024/02/22 13:13:10;;;;;;;6.72;5.93;;;;;;;;;;5137517;27;317737;-83
2024/02/22 13:15:38;;;;;;;7.17;5.70;;;;;;;;;;5130442;27;417817;-83
2024/02/22 13:18:06;;;;;;;9.00;6.00;;;;;;;;;;5126271;27;315486;-83
2024/02/22 13:20:34;;;;;;;11.23;5.93;;;;;;;;;;5094851;27;316974;-83
2024/02/22 13:23:02;;;;;;;8.70;5.28;;;;;;;;;;5143389;27;317600;-82
2024/02/22 13:25:35;;;;;;;8.07;5.67;;;;;;;;;;5124204;27;316528;-83
2024/02/22 13:28:01;;;;;;;6.90;5.77;;;;;;;;;;5143688;27;351602;-81
2024/02/22 13:30:30;;;;;;;10.10;6.80;;;;;;;;;;5127986;27;316510;-82
2024/02/22 13:33:00;;;;;;;7.97;6.77;;;;;;;;;;5146146;27;318668;-82
2024/02/22 13:35:31;;;;;;;8.53;6.07;;;;;;;;;;5135041;27;317181;-82
2024/02/22 13:37:58;;;;;;;17.87;8.33;;;;;;;;;;5145141;27;317558;-82
2024/02/22 13:40:27;;;;;;;10.60;6.07;;;;;;;;;;5125409;27;318402;-83
2024/02/22 13:42:57;;;;;;;11.93;6.43;;;;;;;;;;5145108;27;317458;-83
2024/02/22 13:45:23;;;;;;;9.40;4.50;;;;;;;;;;5132096;27;318755;-83
2024/02/22 13:47:51;;;;;;;4.73;4.03;;;;;;;;;;5146915;27;317381;-82
2024/02/22 13:50:19;;;;;;;9.97;4.70;;;;;;;;;;5129279;27;317569;-83
2024/02/22 13:52:48;;;;;;;8.23;6.57;;;;;;;;;;5131668;27;316129;-83
2024/02/22 13:55:17;;;;;;;8.33;6.93;;;;;;;;;;5130852;27;343418;-83
2024/02/22 13:57:45;;;;;;;8.43;5.03;;;;;;;;;;5143349;27;316900;-84
2024/02/22 14:00:14;;;;;;;23.77;21.20;;;;;;;;;;5134135;27;316089;-83
2024/02/22 14:02:42;;;;;;;13.53;11.33;;;;;;;;;;5140575;27;319270;-84
2024/02/22 14:05:10;;;;;;;4.67;4.13;;;;;;;;;;5136254;27;318786;-83
2024/02/22 14:07:37;;;;;;;11.40;7.67;;;;;;;;;;5144644;27;316758;-83
2024/02/22 14:10:07;;;;;;;4.93;3.87;;;;;;;;;;5145872;27;318758;-83
2024/02/22 14:12:35;;;;;;;9.20;3.97;;;;;;;;;;5123070;27;385199;-83
2024/02/22 14:15:04;;;;;;;6.37;4.20;;;;;;;;;;5146718;27;315248;-84
2024/02/22 14:17:33;;;;;;;7.47;3.67;;;;;;;;;;5133770;27;317122;-84
2024/02/22 14:20:02;;;;;;;5.53;3.57;;;;;;;;;;5148304;27;317088;-83
2024/02/22 14:22:30;;;;;;;5.10;4.20;;;;;;;;;;5099154;27;317048;-82
2024/02/22 14:24:57;;;;;;;5.78;4.15;;;;;;;;;;5144104;27;316954;-84
2024/02/22 14:27:31;;;;;;;5.62;4.15;;;;;;;;;;5133998;27;317099;-83